Terminal Aerodrome Forecast
Issued by NWS Buffalo, NY

Current Version | Previous Version | Text Only | Print | Product List | Glossary On
Versions: 1 2 3 4 5 6 7 8 9 10 11 12 13 14 15 16 17 18 19 20 21 22 23 24 25
000
FTUS41 KBUF 302305 AAC
TAFBUF
TAF AMD
KBUF 302305Z 3023/3118 31009KT P6SM SCT040 BKN150
     FM310100 23009KT P6SM BKN050
     FM310200 23005KT 4SM SHRA VCTS OVC035CB
     FM310500 01011KT 4SM -RA BR OVC007
     FM310900 04013KT 4SM -RA BR OVC007
     FM311600 06015KT 6SM -RA OVC012=

USA.gov is the U.S. government's official web portal to all federal, state and local government web resources and services.